Time;durP1;ratioP1;P1;durP2;ratioP2;P2;SDS_P1;SDS_P2;PMS_P1;PMS_P2;Temp;Humidity;BMP_temperature;BMP_pressure;BME280_temperature;BME280_humidity;BME280_pressure;Samples;Min_cycle;Max_cycle;Signal;HPM_P1;HPM_P2
2024/03/17 00:01:22;;;;;;;11.90;2.90;;;;;;;6.61;78.34;100097.10;103388;1251;138375;-66
2024/03/17 00:03:48;;;;;;;10.20;3.20;;;;;;;6.61;78.26;100102.27;102003;1251;1015691;-66
2024/03/17 00:06:14;;;;;;;8.90;2.70;;;;;;;6.62;78.19;100098.98;103537;1251;97797;-66
2024/03/17 00:08:39;;;;;;;;;;;;;;;6.60;77.90;100098.83;103919;1251;138456;-66
2024/03/17 00:11:06;;;;;;;10.20;2.80;;;;;;;6.58;78.16;100104.06;103493;1251;97826;-66
2024/03/17 00:13:32;;;;;;;10.10;2.70;;;;;;;6.57;78.07;100107.89;103567;1250;139139;-66
2024/03/17 00:15:59;;;;;;;9.90;2.70;;;;;;;6.57;77.45;100108.74;103427;1250;108537;-66
2024/03/17 00:18:26;;;;;;;13.80;2.60;;;;;;;6.56;76.85;100105.31;103516;1251;98313;-66
2024/03/17 00:20:53;;;;;;;10.40;2.50;;;;;;;6.54;75.96;100094.11;103375;1250;138280;-66
2024/03/17 00:23:20;;;;;;;10.10;3.00;;;;;;;6.53;74.89;100094.48;103486;1250;97766;-65
2024/03/17 00:25:46;;;;;;;14.70;2.50;;;;;;;6.52;73.83;100099.01;103458;1250;138412;-66
2024/03/17 00:28:12;;;;;;;12.80;2.70;;;;;;;6.51;73.59;100104.54;103478;1251;106781;-66
2024/03/17 00:30:38;;;;;;;9.00;2.60;;;;;;;6.51;73.55;100111.45;103528;1251;97884;-67
2024/03/17 00:33:03;;;;;;;;;;;;;;;6.52;72.98;100104.88;103405;1250;138000;-66
2024/03/17 00:35:30;;;;;;;11.70;2.80;;;;;;;6.47;71.64;100104.96;103473;1251;97930;-69
2024/03/17 00:37:58;;;;;;;13.60;3.30;;;;;;;6.40;70.71;100107.67;103394;1255;137951;-68
2024/03/17 00:40:24;;;;;;;6.90;2.40;;;;;;;6.35;71.23;100112.58;103393;1250;108306;-68
2024/03/17 00:42:51;;;;;;;12.00;2.50;;;;;;;6.31;70.99;100113.88;103494;1250;97830;-68
2024/03/17 00:45:17;;;;;;;8.80;2.40;;;;;;;6.29;71.08;100114.95;103413;1250;138351;-68
2024/03/17 00:47:44;;;;;;;10.90;2.60;;;;;;;6.26;71.02;100122.23;103505;1251;97827;-68
2024/03/17 00:50:12;;;;;;;10.60;2.60;;;;;;;6.22;71.13;100118.52;103372;1256;138326;-67
2024/03/17 00:52:39;;;;;;;12.50;2.40;;;;;;;6.21;71.38;100124.05;103633;1251;107042;-66
2024/03/17 00:55:06;;;;;;;10.00;2.60;;;;;;;6.21;71.45;100124.04;103480;1250;97826;-67
2024/03/17 00:57:32;;;;;;;8.10;2.40;;;;;;;6.23;71.25;100124.19;103785;1251;138002;-66
2024/03/17 00:59:57;;;;;;;;;;;;;;;6.23;70.83;100120.39;103509;1250;98257;-68
2024/03/17 01:02:23;;;;;;;16.00;2.90;;;;;;;6.21;70.69;100125.59;103367;1251;124137;-68
2024/03/17 01:04:49;;;;;;;10.90;2.90;;;;;;;6.19;70.20;100127.18;103458;1255;108013;-68
2024/03/17 01:07:14;;;;;;;;;;;;;;;6.15;69.92;100122.59;103402;1250;137779;-68
2024/03/17 01:09:40;;;;;;;19.50;2.90;;;;;;;6.10;70.01;100128.71;103469;1253;107722;-68
2024/03/17 01:12:07;;;;;;;13.50;2.70;;;;;;;6.05;70.03;100128.27;103553;1256;97800;-66
2024/03/17 01:14:33;;;;;;;14.60;2.60;;;;;;;5.98;70.07;100128.38;103450;1255;137446;-67
2024/03/17 01:17:01;;;;;;;15.20;2.80;;;;;;;5.95;70.13;100136.20;103513;1251;107656;-68
2024/03/17 01:19:27;;;;;;;14.30;3.20;;;;;;;5.90;69.99;100136.59;103435;1250;138105;-68
2024/03/17 01:21:52;;;;;;;;;;;;;;;5.84;69.75;100132.17;103574;1250;107803;-68
2024/03/17 01:24:19;;;;;;;13.40;2.70;;;;;;;5.76;69.80;100126.96;103470;1251;97832;-68
2024/03/17 01:26:45;;;;;;;12.10;2.70;;;;;;;5.68;69.95;100130.67;103378;1250;137565;-67
2024/03/17 01:29:11;;;;;;;;;;;;;;;5.62;70.21;100133.71;103521;1251;110101;-67
2024/03/17 01:31:38;;;;;;;11.60;2.90;;;;;;;5.55;70.44;100137.41;103425;1250;126241;-67
2024/03/17 01:34:02;;;;;;;;;;;;;;;5.50;70.67;100139.73;103558;1250;107966;-67
2024/03/17 01:36:29;;;;;;;13.60;3.40;;;;;;;5.43;70.78;100142.42;103507;1251;97735;-67
2024/03/17 01:38:55;;;;;;;17.80;3.10;;;;;;;5.37;70.91;100147.64;103379;1250;138154;-67
2024/03/17 01:41:22;;;;;;;13.40;2.90;;;;;;;5.35;71.23;100150.09;103379;1250;109862;-67
2024/03/17 01:43:48;;;;;;;13.00;2.90;;;;;;;5.32;71.38;100153.06;103411;1250;139652;-67
2024/03/17 01:46:13;;;;;;;;;;;;;;;5.29;71.30;100150.70;103495;1250;108864;-67
2024/03/17 01:48:40;;;;;;;12.50;2.90;;;;;;;5.25;71.47;100150.92;103468;1251;97813;-67
2024/03/17 01:51:07;;;;;;;11.20;3.00;;;;;;;5.17;71.42;100147.20;104308;1254;138882;-67
2024/03/17 01:53:34;;;;;;;13.70;2.90;;;;;;;5.14;71.65;100148.80;103497;1251;107041;-67
2024/03/17 01:56:01;;;;;;;13.40;2.80;;;;;;;5.12;71.69;100155.71;103380;1250;138475;-67
2024/03/17 01:58:28;;;;;;;15.60;3.40;;;;;;;5.09;71.80;100154.73;103508;1256;107912;-67
